createdAt,value
2022-09-01T00:05:03.892Z,60
2022-09-01T00:10:55.645Z,60.5
2022-09-01T00:16:51.925Z,60.7
2022-09-01T00:22:44.546Z,60.7
2022-09-01T00:29:45.844Z,60.4
2022-09-01T00:35:39.388Z,60.6
2022-09-01T00:41:30.225Z,61.4
2022-09-01T00:47:20.671Z,61.6
2022-09-01T00:53:12.797Z,62.3
2022-09-01T00:59:05.717Z,62.9
2022-09-01T01:04:57.080Z,63.7
2022-09-01T01:10:48.550Z,65.7
2022-09-01T01:16:39.609Z,65.6
2022-09-01T01:22:31.655Z,66
2022-09-01T01:28:23.891Z,66.5
2022-09-01T01:34:15.452Z,66.6
2022-09-01T01:40:05.995Z,67.8
2022-09-01T01:45:58.299Z,68.9
2022-09-01T01:51:48.789Z,69.3
2022-09-01T01:57:40.425Z,69.7
2022-09-01T02:03:32.204Z,70.4
2022-09-01T02:09:22.935Z,69.7
2022-09-01T02:15:15.163Z,70.2
2022-09-01T02:21:05.969Z,69.8
2022-09-01T02:27:01.531Z,70.7
2022-09-01T02:32:51.509Z,72.6
2022-09-01T02:38:43.056Z,72.2
2022-09-01T02:44:47.425Z,73.1
2022-09-01T02:50:39.734Z,71.5
2022-09-01T02:56:30.621Z,73.5
2022-09-01T03:02:22.909Z,72.9
2022-09-01T03:08:15.560Z,74.4
2022-09-01T03:14:08.642Z,73.5
2022-09-01T03:20:00.669Z,73.8
2022-09-01T03:25:51.780Z,74.4
2022-09-01T03:31:43.349Z,73.7
2022-09-01T03:37:36.048Z,74.4
2022-09-01T03:43:36.462Z,74.7
2022-09-01T03:49:35.465Z,76.1
2022-09-01T03:55:26.144Z,76.5
2022-09-01T04:01:17.928Z,77.5
2022-09-01T04:07:09.917Z,77.3
2022-09-01T04:13:07.337Z,76.9
2022-09-01T04:19:02.415Z,76.2
2022-09-01T04:24:54.144Z,77.7
2022-09-01T04:30:48.782Z,78.7
2022-09-01T04:36:43.320Z,78.3
2022-09-01T04:42:40.794Z,77.5
2022-09-01T04:48:33.518Z,78.8
2022-09-01T04:54:25.882Z,79
2022-09-01T05:00:18.228Z,77.9
2022-09-01T05:06:09.362Z,76.5
2022-09-01T05:12:00.574Z,77.4
2022-09-01T05:17:52.517Z,78.9
2022-09-01T05:23:45.552Z,78.5
2022-09-01T05:29:37.241Z,77
2022-09-01T05:35:34.642Z,76.9
2022-09-01T05:41:25.244Z,77.2
2022-09-01T05:47:22.603Z,77.4
2022-09-01T05:53:16.378Z,76.8
2022-09-01T05:59:29.383Z,75.3
2022-09-01T06:05:19.257Z,76.1
2022-09-01T06:11:12.003Z,76.5
2022-09-01T06:17:04.568Z,75.9
2022-09-01T06:22:56.057Z,76.1
2022-09-01T06:29:05.236Z,74.5
2022-09-01T06:41:36.459Z,73.7
2022-09-01T06:47:28.863Z,74.8
2022-09-01T06:53:34.265Z,74.2
2022-09-01T07:06:02.268Z,71.5
2022-09-01T07:49:50.215Z,64.6
2022-09-01T07:57:28.489Z,63.9
2022-09-01T08:03:33.144Z,63.7
2022-09-01T08:09:37.314Z,63.1
2022-09-01T08:16:19.511Z,63
2022-09-01T08:22:28.853Z,62.9
2022-09-01T08:28:38.462Z,62.4
2022-09-01T08:35:43.484Z,62.3
2022-09-01T08:41:54.245Z,60.6
2022-09-01T09:01:33.589Z,58.3
2022-09-01T09:14:38.464Z,58.2
2022-09-01T09:20:55.652Z,58.2
2022-09-01T09:40:02.507Z,57.1
2022-09-01T09:46:25.125Z,56.3
2022-09-01T10:20:26.709Z,55
2022-09-01T10:26:27.222Z,54.8
2022-09-01T10:32:37.151Z,53.7
2022-09-01T10:39:06.092Z,52.9
2022-09-01T10:44:59.912Z,52
2022-09-01T10:50:51.582Z,52.2
2022-09-01T10:56:53.276Z,51.8
2022-09-01T11:02:54.906Z,50.1
2022-09-01T11:09:39.136Z,51
2022-09-01T11:15:46.800Z,51.4
2022-09-01T11:22:00.390Z,50.4
2022-09-01T11:34:40.930Z,49.9
2022-09-01T11:40:45.739Z,49.9
2022-09-01T11:52:37.203Z,49.3
2022-09-01T11:58:46.123Z,50.8
2022-09-01T12:04:49.649Z,50.4
2022-09-01T12:11:10.981Z,49.8
2022-09-01T12:17:14.675Z,49
2022-09-01T12:23:29.032Z,48.1
2022-09-01T12:36:33.530Z,47.6
2022-09-01T12:42:23.553Z,47.3
2022-09-01T12:48:26.765Z,46.7
2022-09-01T12:54:23.160Z,46.9
2022-09-01T13:00:14.768Z,47
2022-09-01T13:12:39.423Z,45.7
2022-09-01T13:25:58.052Z,44.3
2022-09-01T13:39:06.630Z,43.4
2022-09-01T13:44:59.212Z,42.8
2022-09-01T13:51:22.038Z,41.5
2022-09-01T13:57:13.497Z,39.6
2022-09-01T14:03:12.564Z,40.2
2022-09-01T14:09:07.286Z,38.8
2022-09-01T14:15:18.542Z,40.2
2022-09-01T14:21:18.397Z,38.5
2022-09-01T14:33:46.131Z,39
2022-09-01T14:39:46.239Z,38.1
2022-09-01T14:45:42.263Z,38.3
2022-09-01T14:52:11.771Z,38.9
2022-09-01T14:58:09.556Z,37.6
2022-09-01T15:04:05.879Z,38.5
2022-09-01T15:09:57.931Z,40.1
2022-09-01T15:15:50.872Z,40.3
2022-09-01T15:21:43.636Z,39.6
2022-09-01T15:27:42.772Z,39.8
2022-09-01T15:33:34.554Z,39.6
2022-09-01T15:39:39.743Z,38.9
2022-09-01T15:45:29.629Z,38.4
2022-09-01T15:51:20.301Z,38.5
2022-09-01T15:57:12.805Z,36.7
2022-09-01T16:03:03.082Z,35.4
2022-09-01T16:08:54.001Z,35.4
2022-09-01T16:14:44.521Z,36.4
2022-09-01T16:20:34.710Z,36.5
2022-09-01T16:26:25.965Z,36.2
2022-09-01T16:32:16.868Z,37.2
2022-09-01T16:38:08.217Z,37.2
2022-09-01T16:44:00.985Z,37.2
2022-09-01T16:49:52.192Z,36.1
2022-09-01T16:55:43.394Z,35.8
2022-09-01T17:01:35.161Z,36.1
2022-09-01T17:07:31.161Z,37.8
2022-09-01T17:13:23.471Z,37.2
2022-09-01T17:19:17.387Z,38
2022-09-01T17:25:08.159Z,39
2022-09-01T17:31:05.044Z,38.7
2022-09-01T17:36:57.312Z,40.4
2022-09-01T17:42:48.310Z,41.1
2022-09-01T17:48:39.608Z,41.2
2022-09-01T17:54:30.433Z,42
2022-09-01T18:00:21.728Z,43.2
2022-09-01T18:06:12.906Z,45.4
2022-09-01T18:12:04.788Z,45.9
2022-09-01T18:17:55.534Z,46.4
2022-09-01T18:23:46.712Z,50.6
2022-09-01T18:29:38.780Z,51.2
2022-09-01T18:35:32.736Z,51.1
2022-09-01T18:41:23.843Z,49.5
2022-09-01T18:47:19.378Z,51.8
2022-09-01T18:53:11.640Z,51.6
2022-09-01T18:59:05.127Z,52
2022-09-01T19:04:55.448Z,52.8
2022-09-01T19:10:46.795Z,53.4
2022-09-01T19:16:38.697Z,54.1
2022-09-01T19:22:29.937Z,54.1
2022-09-01T19:29:29.327Z,54.7
2022-09-01T19:35:19.889Z,55.2
2022-09-01T19:41:11.862Z,55.9
2022-09-01T19:47:03.086Z,55.9
2022-09-01T19:52:54.466Z,55.8
2022-09-01T19:58:45.268Z,55.9
2022-09-01T20:04:34.484Z,54.7
2022-09-01T20:10:24.779Z,54.7
2022-09-01T20:16:16.688Z,55
2022-09-01T20:22:07.390Z,55.2
2022-09-01T20:27:59.618Z,54.4
2022-09-01T20:33:50.445Z,53.8
2022-09-01T20:39:41.415Z,53.4
2022-09-01T20:45:32.467Z,53.6
2022-09-01T20:51:29.363Z,55.1
2022-09-01T20:57:19.022Z,55.1
2022-09-01T21:03:13.657Z,53.1
2022-09-01T21:09:06.633Z,50.5
2022-09-01T21:14:59.641Z,50.1
2022-09-01T21:20:51.916Z,49.1
2022-09-01T21:26:42.600Z,49.1
2022-09-01T21:32:34.726Z,48.7
2022-09-01T21:38:24.703Z,49.1
2022-09-01T21:44:16.157Z,50.1
2022-09-01T21:50:09.321Z,51.1
2022-09-01T21:56:02.537Z,50.8
2022-09-01T22:01:54.001Z,51.3
2022-09-01T22:07:46.964Z,50.2
2022-09-01T22:13:39.870Z,50.7
2022-09-01T22:19:30.667Z,50.5
2022-09-01T22:25:23.770Z,52.2
2022-09-01T22:31:15.126Z,52.3
2022-09-01T22:37:06.647Z,50.1
2022-09-01T22:42:59.378Z,49.4
2022-09-01T22:48:49.747Z,48.7
2022-09-01T22:54:41.034Z,48.9
2022-09-01T23:00:32.369Z,49.4
2022-09-01T23:06:29.793Z,49.2
2022-09-01T23:12:21.156Z,49.6
2022-09-01T23:18:12.849Z,50.3
2022-09-01T23:24:03.008Z,49.7
2022-09-01T23:29:54.498Z,50.7
2022-09-01T23:35:46.026Z,50.9
2022-09-01T23:41:36.896Z,51
2022-09-01T23:47:28.387Z,51.2
2022-09-01T23:53:19.014Z,51.1
2022-09-01T23:59:10.700Z,52.3
